Terminal Aerodrome Forecast
Issued by NWS

Home | Current Version | Previous Version | Text Only | Print | Product List | Glossary On
Versions: 1 2 3 4 5 6 7 8 9 10 11 12 13 14 15 16 17 18 19 20 21 22 23 24 25 26 27 28 29 30 31 32 33 34 35 36 37 38 39 40 41 42 43 44 45 46 47 48 49 50
000
FTUS41 KILN 201324 AAA
TAFLUK
TAF AMD
KLUK 201324Z 2013/2112 21009KT 5SM BR OVC007
     FM201500 24010KT P6SM VCSH SCT012 BKN020
     FM201700 27015G25KT P6SM VCTS BKN040CB
     FM210000 31010G16KT P6SM VCSH BKN040
     FM210200 32004KT P6SM SCT020 SCT035
     FM210800 00000KT 4SM BR SCT010
      TEMPO 2108/2112 2SM BR FEW010=

USA.gov is the U.S. government's official web portal to all federal, state and local government web resources and services.